sensor_id;sensor_type;location;lat;lon;timestamp;P1;durP1;ratioP1;P2;durP2;ratioP2
5127;SDS011;2582;48.770;9.190;2023-08-06T00:02:12;5.83;;;5.33;;
5127;SDS011;2582;48.770;9.190;2023-08-06T00:04:38;4.90;;;4.50;;
5127;SDS011;2582;48.770;9.190;2023-08-06T00:07:04;5.73;;;5.23;;
5127;SDS011;2582;48.770;9.190;2023-08-06T00:09:29;6.53;;;5.07;;
5127;SDS011;2582;48.770;9.190;2023-08-06T00:11:55;4.90;;;4.50;;
5127;SDS011;2582;48.770;9.190;2023-08-06T00:14:21;5.80;;;4.90;;
5127;SDS011;2582;48.770;9.190;2023-08-06T00:16:46;5.17;;;4.67;;
5127;SDS011;2582;48.770;9.190;2023-08-06T00:19:12;5.50;;;4.50;;
5127;SDS011;2582;48.770;9.190;2023-08-06T00:21:37;5.13;;;4.63;;
5127;SDS011;2582;48.770;9.190;2023-08-06T00:24:03;5.87;;;5.33;;
5127;SDS011;2582;48.770;9.190;2023-08-06T00:26:29;5.30;;;4.80;;
5127;SDS011;2582;48.770;9.190;2023-08-06T00:28:54;5.23;;;4.73;;
5127;SDS011;2582;48.770;9.190;2023-08-06T00:31:20;5.00;;;4.60;;
5127;SDS011;2582;48.770;9.190;2023-08-06T00:33:45;4.60;;;4.10;;
5127;SDS011;2582;48.770;9.190;2023-08-06T00:36:11;3.83;;;3.53;;
5127;SDS011;2582;48.770;9.190;2023-08-06T00:38:37;4.70;;;4.30;;
5127;SDS011;2582;48.770;9.190;2023-08-06T00:41:02;4.00;;;3.70;;
5127;SDS011;2582;48.770;9.190;2023-08-06T00:43:28;5.43;;;4.93;;
5127;SDS011;2582;48.770;9.190;2023-08-06T00:45:53;4.90;;;4.00;;
5127;SDS011;2582;48.770;9.190;2023-08-06T00:48:19;4.27;;;3.87;;
5127;SDS011;2582;48.770;9.190;2023-08-06T00:50:45;4.83;;;4.17;;
5127;SDS011;2582;48.770;9.190;2023-08-06T00:53:11;4.63;;;4.00;;
5127;SDS011;2582;48.770;9.190;2023-08-06T00:55:37;4.43;;;4.03;;
5127;SDS011;2582;48.770;9.190;2023-08-06T00:58:03;4.97;;;4.50;;
5127;SDS011;2582;48.770;9.190;2023-08-06T01:00:29;4.07;;;3.53;;
5127;SDS011;2582;48.770;9.190;2023-08-06T01:02:55;4.20;;;3.90;;
5127;SDS011;2582;48.770;9.190;2023-08-06T01:05:22;5.00;;;4.17;;
5127;SDS011;2582;48.770;9.190;2023-08-06T01:08:02;4.03;;;3.60;;
5127;SDS011;2582;48.770;9.190;2023-08-06T01:15:43;6.67;;;4.83;;
5127;SDS011;2582;48.770;9.190;2023-08-06T01:18:20;4.83;;;4.33;;
5127;SDS011;2582;48.770;9.190;2023-08-06T01:20:46;4.53;;;4.03;;
5127;SDS011;2582;48.770;9.190;2023-08-06T01:23:12;3.83;;;3.53;;
5127;SDS011;2582;48.770;9.190;2023-08-06T01:25:58;4.67;;;4.27;;
5127;SDS011;2582;48.770;9.190;2023-08-06T01:31:37;5.97;;;4.00;;
5127;SDS011;2582;48.770;9.190;2023-08-06T01:34:07;2.77;;;2.57;;
5127;SDS011;2582;48.770;9.190;2023-08-06T01:36:38;4.83;;;4.33;;
5127;SDS011;2582;48.770;9.190;2023-08-06T01:39:04;3.10;;;2.90;;
5127;SDS011;2582;48.770;9.190;2023-08-06T01:41:30;3.50;;;3.30;;
5127;SDS011;2582;48.770;9.190;2023-08-06T01:43:55;3.43;;;3.17;;
5127;SDS011;2582;48.770;9.190;2023-08-06T01:46:21;3.97;;;3.13;;
5127;SDS011;2582;48.770;9.190;2023-08-06T01:48:47;3.37;;;2.90;;
5127;SDS011;2582;48.770;9.190;2023-08-06T01:51:12;3.10;;;2.77;;
5127;SDS011;2582;48.770;9.190;2023-08-06T01:53:38;4.60;;;3.40;;
5127;SDS011;2582;48.770;9.190;2023-08-06T01:56:03;3.87;;;3.47;;
5127;SDS011;2582;48.770;9.190;2023-08-06T01:58:29;3.00;;;2.73;;
5127;SDS011;2582;48.770;9.190;2023-08-06T02:00:54;3.60;;;3.30;;
5127;SDS011;2582;48.770;9.190;2023-08-06T02:03:20;6.40;;;3.70;;
5127;SDS011;2582;48.770;9.190;2023-08-06T02:05:45;2.93;;;2.73;;
5127;SDS011;2582;48.770;9.190;2023-08-06T02:08:11;3.57;;;3.10;;
5127;SDS011;2582;48.770;9.190;2023-08-06T02:10:36;4.27;;;2.80;;
5127;SDS011;2582;48.770;9.190;2023-08-06T02:13:02;3.37;;;3.07;;
5127;SDS011;2582;48.770;9.190;2023-08-06T02:15:28;3.37;;;3.07;;
5127;SDS011;2582;48.770;9.190;2023-08-06T02:17:53;5.77;;;3.30;;
5127;SDS011;2582;48.770;9.190;2023-08-06T02:20:19;3.13;;;2.83;;
5127;SDS011;2582;48.770;9.190;2023-08-06T02:22:44;3.93;;;3.63;;
5127;SDS011;2582;48.770;9.190;2023-08-06T02:25:10;3.13;;;2.93;;
5127;SDS011;2582;48.770;9.190;2023-08-06T02:27:36;4.00;;;3.40;;
5127;SDS011;2582;48.770;9.190;2023-08-06T02:30:02;2.90;;;2.70;;
5127;SDS011;2582;48.770;9.190;2023-08-06T02:32:29;3.43;;;3.13;;
5127;SDS011;2582;48.770;9.190;2023-08-06T02:34:56;3.63;;;3.10;;
5127;SDS011;2582;48.770;9.190;2023-08-06T02:37:22;3.00;;;2.80;;
5127;SDS011;2582;48.770;9.190;2023-08-06T02:39:47;3.53;;;3.07;;
5127;SDS011;2582;48.770;9.190;2023-08-06T02:42:13;5.47;;;3.90;;
5127;SDS011;2582;48.770;9.190;2023-08-06T02:44:38;4.30;;;3.90;;
5127;SDS011;2582;48.770;9.190;2023-08-06T02:47:04;3.70;;;3.23;;
5127;SDS011;2582;48.770;9.190;2023-08-06T02:49:30;4.50;;;3.40;;
5127;SDS011;2582;48.770;9.190;2023-08-06T02:51:56;3.63;;;3.10;;
5127;SDS011;2582;48.770;9.190;2023-08-06T02:54:21;4.93;;;3.50;;
5127;SDS011;2582;48.770;9.190;2023-08-06T02:56:47;3.40;;;2.80;;
5127;SDS011;2582;48.770;9.190;2023-08-06T02:59:12;3.03;;;2.80;;
5127;SDS011;2582;48.770;9.190;2023-08-06T03:01:38;3.90;;;3.00;;
5127;SDS011;2582;48.770;9.190;2023-08-06T03:04:04;2.90;;;2.70;;
5127;SDS011;2582;48.770;9.190;2023-08-06T03:06:30;4.43;;;2.90;;
5127;SDS011;2582;48.770;9.190;2023-08-06T03:08:55;4.97;;;3.17;;
5127;SDS011;2582;48.770;9.190;2023-08-06T03:11:21;3.83;;;2.93;;
5127;SDS011;2582;48.770;9.190;2023-08-06T03:13:47;3.10;;;2.80;;
5127;SDS011;2582;48.770;9.190;2023-08-06T03:16:13;3.30;;;3.00;;
5127;SDS011;2582;48.770;9.190;2023-08-06T03:18:38;4.90;;;2.50;;
5127;SDS011;2582;48.770;9.190;2023-08-06T03:21:04;3.20;;;2.83;;
5127;SDS011;2582;48.770;9.190;2023-08-06T03:23:30;5.03;;;2.40;;
5127;SDS011;2582;48.770;9.190;2023-08-06T03:25:55;3.93;;;2.93;;
5127;SDS011;2582;48.770;9.190;2023-08-06T03:28:21;3.17;;;2.67;;
5127;SDS011;2582;48.770;9.190;2023-08-06T03:30:47;3.60;;;2.90;;
5127;SDS011;2582;48.770;9.190;2023-08-06T03:33:13;3.30;;;3.00;;
5127;SDS011;2582;48.770;9.190;2023-08-06T03:35:39;4.73;;;2.83;;
5127;SDS011;2582;48.770;9.190;2023-08-06T03:38:04;2.90;;;2.50;;
5127;SDS011;2582;48.770;9.190;2023-08-06T03:40:30;2.57;;;2.37;;
5127;SDS011;2582;48.770;9.190;2023-08-06T03:42:56;4.10;;;2.40;;
5127;SDS011;2582;48.770;9.190;2023-08-06T03:45:21;2.90;;;2.57;;
5127;SDS011;2582;48.770;9.190;2023-08-06T03:47:47;5.57;;;2.70;;
5127;SDS011;2582;48.770;9.190;2023-08-06T03:50:12;2.57;;;2.33;;
5127;SDS011;2582;48.770;9.190;2023-08-06T03:52:38;4.43;;;2.87;;
5127;SDS011;2582;48.770;9.190;2023-08-06T03:55:03;7.37;;;2.70;;
5127;SDS011;2582;48.770;9.190;2023-08-06T03:57:29;2.80;;;2.00;;
5127;SDS011;2582;48.770;9.190;2023-08-06T03:59:55;6.03;;;2.67;;
5127;SDS011;2582;48.770;9.190;2023-08-06T04:02:20;3.30;;;2.43;;
5127;SDS011;2582;48.770;9.190;2023-08-06T04:04:46;3.33;;;2.37;;
5127;SDS011;2582;48.770;9.190;2023-08-06T04:07:11;3.20;;;2.90;;
5127;SDS011;2582;48.770;9.190;2023-08-06T04:09:51;3.67;;;2.47;;
5127;SDS011;2582;48.770;9.190;2023-08-06T04:12:22;2.97;;;2.60;;
5127;SDS011;2582;48.770;9.190;2023-08-06T04:14:47;4.83;;;2.30;;
5127;SDS011;2582;48.770;9.190;2023-08-06T04:17:13;4.20;;;2.37;;
5127;SDS011;2582;48.770;9.190;2023-08-06T04:19:38;3.03;;;2.47;;
5127;SDS011;2582;48.770;9.190;2023-08-06T04:22:04;2.57;;;2.37;;
5127;SDS011;2582;48.770;9.190;2023-08-06T04:24:29;3.93;;;2.43;;
5127;SDS011;2582;48.770;9.190;2023-08-06T04:26:55;3.50;;;2.33;;
5127;SDS011;2582;48.770;9.190;2023-08-06T04:29:20;4.20;;;2.47;;
5127;SDS011;2582;48.770;9.190;2023-08-06T04:31:46;2.10;;;1.90;;
5127;SDS011;2582;48.770;9.190;2023-08-06T04:34:11;3.33;;;2.30;;
5127;SDS011;2582;48.770;9.190;2023-08-06T04:36:37;4.63;;;2.50;;
5127;SDS011;2582;48.770;9.190;2023-08-06T04:39:03;2.27;;;2.10;;
5127;SDS011;2582;48.770;9.190;2023-08-06T04:41:29;3.70;;;2.20;;
5127;SDS011;2582;48.770;9.190;2023-08-06T04:43:56;5.37;;;3.10;;
5127;SDS011;2582;48.770;9.190;2023-08-06T04:46:22;2.70;;;2.50;;
5127;SDS011;2582;48.770;9.190;2023-08-06T04:48:47;2.40;;;2.10;;
5127;SDS011;2582;48.770;9.190;2023-08-06T04:51:13;4.37;;;2.43;;
5127;SDS011;2582;48.770;9.190;2023-08-06T04:53:39;2.27;;;2.07;;
5127;SDS011;2582;48.770;9.190;2023-08-06T04:56:05;2.20;;;2.00;;
5127;SDS011;2582;48.770;9.190;2023-08-06T04:58:30;4.77;;;2.07;;
5127;SDS011;2582;48.770;9.190;2023-08-06T05:00:56;2.93;;;2.00;;
5127;SDS011;2582;48.770;9.190;2023-08-06T05:05:47;2.83;;;2.20;;
5127;SDS011;2582;48.770;9.190;2023-08-06T05:08:15;2.20;;;1.37;;
5127;SDS011;2582;48.770;9.190;2023-08-06T05:10:46;2.27;;;1.80;;
5127;SDS011;2582;48.770;9.190;2023-08-06T05:13:12;2.03;;;1.80;;
5127;SDS011;2582;48.770;9.190;2023-08-06T05:15:38;2.77;;;1.70;;
5127;SDS011;2582;48.770;9.190;2023-08-06T05:18:04;3.90;;;1.70;;
5127;SDS011;2582;48.770;9.190;2023-08-06T05:20:30;4.03;;;1.20;;
5127;SDS011;2582;48.770;9.190;2023-08-06T05:22:56;2.20;;;1.43;;
5127;SDS011;2582;48.770;9.190;2023-08-06T05:25:21;4.07;;;1.73;;
5127;SDS011;2582;48.770;9.190;2023-08-06T05:27:47;1.70;;;1.60;;
5127;SDS011;2582;48.770;9.190;2023-08-06T05:30:12;3.60;;;1.57;;
5127;SDS011;2582;48.770;9.190;2023-08-06T05:32:38;1.57;;;1.47;;
5127;SDS011;2582;48.770;9.190;2023-08-06T05:35:03;2.53;;;1.90;;
5127;SDS011;2582;48.770;9.190;2023-08-06T05:37:29;2.70;;;1.60;;
5127;SDS011;2582;48.770;9.190;2023-08-06T05:39:55;2.50;;;1.43;;
5127;SDS011;2582;48.770;9.190;2023-08-06T05:42:20;2.47;;;1.50;;
5127;SDS011;2582;48.770;9.190;2023-08-06T05:44:46;2.80;;;1.50;;
5127;SDS011;2582;48.770;9.190;2023-08-06T05:47:11;4.70;;;1.43;;
5127;SDS011;2582;48.770;9.190;2023-08-06T05:49:37;1.53;;;1.10;;
5127;SDS011;2582;48.770;9.190;2023-08-06T05:52:03;5.00;;;1.47;;
5127;SDS011;2582;48.770;9.190;2023-08-06T05:54:31;1.83;;;1.17;;
5127;SDS011;2582;48.770;9.190;2023-08-06T05:56:56;3.53;;;1.50;;
5127;SDS011;2582;48.770;9.190;2023-08-06T05:59:22;1.20;;;0.90;;
5127;SDS011;2582;48.770;9.190;2023-08-06T06:01:47;1.67;;;0.90;;
5127;SDS011;2582;48.770;9.190;2023-08-06T06:04:13;1.70;;;1.00;;
5127;SDS011;2582;48.770;9.190;2023-08-06T06:06:39;1.93;;;0.90;;
5127;SDS011;2582;48.770;9.190;2023-08-06T06:09:06;1.80;;;0.70;;
5127;SDS011;2582;48.770;9.190;2023-08-06T06:11:32;3.60;;;1.10;;
5127;SDS011;2582;48.770;9.190;2023-08-06T06:13:57;0.90;;;0.70;;
5127;SDS011;2582;48.770;9.190;2023-08-06T06:16:23;1.17;;;0.80;;
5127;SDS011;2582;48.770;9.190;2023-08-06T06:18:48;4.03;;;1.00;;
5127;SDS011;2582;48.770;9.190;2023-08-06T06:21:14;1.40;;;0.80;;
5127;SDS011;2582;48.770;9.190;2023-08-06T06:23:39;1.43;;;0.73;;
5127;SDS011;2582;48.770;9.190;2023-08-06T06:26:05;1.70;;;0.90;;
5127;SDS011;2582;48.770;9.190;2023-08-06T06:28:30;1.13;;;0.77;;
5127;SDS011;2582;48.770;9.190;2023-08-06T06:30:59;1.60;;;0.87;;
5127;SDS011;2582;48.770;9.190;2023-08-06T06:33:26;3.80;;;1.10;;
5127;SDS011;2582;48.770;9.190;2023-08-06T06:35:51;2.13;;;0.90;;
5127;SDS011;2582;48.770;9.190;2023-08-06T06:38:17;1.50;;;0.93;;
5127;SDS011;2582;48.770;9.190;2023-08-06T06:40:42;1.73;;;0.70;;
5127;SDS011;2582;48.770;9.190;2023-08-06T06:43:08;1.30;;;0.80;;
5127;SDS011;2582;48.770;9.190;2023-08-06T06:45:33;1.50;;;0.93;;
5127;SDS011;2582;48.770;9.190;2023-08-06T06:47:59;1.30;;;0.80;;
5127;SDS011;2582;48.770;9.190;2023-08-06T06:50:24;4.10;;;1.03;;
5127;SDS011;2582;48.770;9.190;2023-08-06T06:52:51;1.83;;;1.00;;
5127;SDS011;2582;48.770;9.190;2023-08-06T06:55:16;1.83;;;1.00;;
5127;SDS011;2582;48.770;9.190;2023-08-06T06:57:42;6.60;;;0.80;;
5127;SDS011;2582;48.770;9.190;2023-08-06T07:00:08;2.03;;;0.90;;
5127;SDS011;2582;48.770;9.190;2023-08-06T07:02:34;1.10;;;0.80;;
5127;SDS011;2582;48.770;9.190;2023-08-06T07:04:59;1.33;;;0.70;;
5127;SDS011;2582;48.770;9.190;2023-08-06T07:07:25;1.97;;;0.90;;
5127;SDS011;2582;48.770;9.190;2023-08-06T07:09:50;0.93;;;0.80;;
5127;SDS011;2582;48.770;9.190;2023-08-06T07:12:16;1.30;;;0.80;;
5127;SDS011;2582;48.770;9.190;2023-08-06T07:14:41;2.23;;;0.70;;
5127;SDS011;2582;48.770;9.190;2023-08-06T07:17:07;1.20;;;0.70;;
5127;SDS011;2582;48.770;9.190;2023-08-06T07:19:32;1.90;;;1.13;;
5127;SDS011;2582;48.770;9.190;2023-08-06T07:21:58;1.37;;;0.80;;
5127;SDS011;2582;48.770;9.190;2023-08-06T07:24:23;1.03;;;0.70;;
5127;SDS011;2582;48.770;9.190;2023-08-06T07:26:49;1.27;;;0.73;;
5127;SDS011;2582;48.770;9.190;2023-08-06T07:29:14;1.00;;;0.90;;
5127;SDS011;2582;48.770;9.190;2023-08-06T07:31:44;1.57;;;0.77;;
5127;SDS011;2582;48.770;9.190;2023-08-06T07:34:10;2.30;;;0.60;;
5127;SDS011;2582;48.770;9.190;2023-08-06T07:36:35;1.03;;;0.70;;
5127;SDS011;2582;48.770;9.190;2023-08-06T07:39:01;1.60;;;0.73;;
5127;SDS011;2582;48.770;9.190;2023-08-06T07:41:26;1.10;;;0.60;;
5127;SDS011;2582;48.770;9.190;2023-08-06T07:43:52;1.30;;;0.80;;
5127;SDS011;2582;48.770;9.190;2023-08-06T07:46:17;1.00;;;0.77;;
5127;SDS011;2582;48.770;9.190;2023-08-06T07:48:43;1.13;;;0.70;;
5127;SDS011;2582;48.770;9.190;2023-08-06T07:51:09;1.40;;;0.60;;
5127;SDS011;2582;48.770;9.190;2023-08-06T07:53:35;1.73;;;0.67;;
5127;SDS011;2582;48.770;9.190;2023-08-06T07:56:00;0.80;;;0.60;;
5127;SDS011;2582;48.770;9.190;2023-08-06T07:58:27;1.10;;;0.60;;
5127;SDS011;2582;48.770;9.190;2023-08-06T08:00:54;0.80;;;0.50;;
5127;SDS011;2582;48.770;9.190;2023-08-06T08:03:20;1.00;;;0.50;;
5127;SDS011;2582;48.770;9.190;2023-08-06T08:05:45;1.00;;;0.60;;
5127;SDS011;2582;48.770;9.190;2023-08-06T08:08:11;3.00;;;0.60;;
5127;SDS011;2582;48.770;9.190;2023-08-06T08:10:37;0.80;;;0.50;;
5127;SDS011;2582;48.770;9.190;2023-08-06T08:13:03;0.90;;;0.50;;
5127;SDS011;2582;48.770;9.190;2023-08-06T08:15:30;1.00;;;0.50;;
5127;SDS011;2582;48.770;9.190;2023-08-06T08:17:56;1.13;;;0.53;;
5127;SDS011;2582;48.770;9.190;2023-08-06T08:20:22;1.03;;;0.60;;
5127;SDS011;2582;48.770;9.190;2023-08-06T08:22:48;0.93;;;0.50;;
5127;SDS011;2582;48.770;9.190;2023-08-06T08:25:15;0.97;;;0.60;;
5127;SDS011;2582;48.770;9.190;2023-08-06T08:27:41;0.80;;;0.50;;
5127;SDS011;2582;48.770;9.190;2023-08-06T08:30:06;0.83;;;0.57;;
5127;SDS011;2582;48.770;9.190;2023-08-06T08:32:32;0.80;;;0.50;;
5127;SDS011;2582;48.770;9.190;2023-08-06T08:34:58;0.70;;;0.40;;
5127;SDS011;2582;48.770;9.190;2023-08-06T08:37:24;1.20;;;0.50;;
5127;SDS011;2582;48.770;9.190;2023-08-06T08:39:49;1.43;;;0.70;;
5127;SDS011;2582;48.770;9.190;2023-08-06T08:42:15;0.70;;;0.40;;
5127;SDS011;2582;48.770;9.190;2023-08-06T08:44:44;1.10;;;0.70;;
5127;SDS011;2582;48.770;9.190;2023-08-06T08:47:10;0.90;;;0.50;;
5127;SDS011;2582;48.770;9.190;2023-08-06T08:49:36;0.80;;;0.50;;
5127;SDS011;2582;48.770;9.190;2023-08-06T08:52:02;1.10;;;0.60;;
5127;SDS011;2582;48.770;9.190;2023-08-06T08:54:32;3.33;;;0.50;;
5127;SDS011;2582;48.770;9.190;2023-08-06T08:56:59;0.80;;;0.50;;
5127;SDS011;2582;48.770;9.190;2023-08-06T08:59:25;0.80;;;0.40;;
5127;SDS011;2582;48.770;9.190;2023-08-06T09:01:53;0.70;;;0.40;;
5127;SDS011;2582;48.770;9.190;2023-08-06T09:04:19;1.33;;;0.47;;
5127;SDS011;2582;48.770;9.190;2023-08-06T09:06:46;0.70;;;0.40;;
5127;SDS011;2582;48.770;9.190;2023-08-06T09:09:25;0.80;;;0.40;;
5127;SDS011;2582;48.770;9.190;2023-08-06T09:11:53;1.40;;;0.97;;
5127;SDS011;2582;48.770;9.190;2023-08-06T09:14:24;0.70;;;0.40;;
5127;SDS011;2582;48.770;9.190;2023-08-06T09:16:51;1.10;;;0.40;;
5127;SDS011;2582;48.770;9.190;2023-08-06T09:19:17;0.80;;;0.40;;
5127;SDS011;2582;48.770;9.190;2023-08-06T09:21:43;0.80;;;0.60;;
5127;SDS011;2582;48.770;9.190;2023-08-06T09:24:09;1.30;;;0.40;;
5127;SDS011;2582;48.770;9.190;2023-08-06T09:26:44;1.63;;;0.50;;
5127;SDS011;2582;48.770;9.190;2023-08-06T09:29:10;0.73;;;0.40;;
5127;SDS011;2582;48.770;9.190;2023-08-06T09:31:46;0.80;;;0.50;;
5127;SDS011;2582;48.770;9.190;2023-08-06T09:34:16;1.27;;;0.40;;
5127;SDS011;2582;48.770;9.190;2023-08-06T09:36:46;0.90;;;0.40;;
5127;SDS011;2582;48.770;9.190;2023-08-06T09:39:16;0.70;;;0.50;;
5127;SDS011;2582;48.770;9.190;2023-08-06T09:41:43;0.80;;;0.40;;
5127;SDS011;2582;48.770;9.190;2023-08-06T09:46:41;1.20;;;0.50;;
5127;SDS011;2582;48.770;9.190;2023-08-06T09:49:06;0.70;;;0.40;;
5127;SDS011;2582;48.770;9.190;2023-08-06T09:51:33;1.00;;;0.80;;
5127;SDS011;2582;48.770;9.190;2023-08-06T09:54:00;1.23;;;0.50;;
5127;SDS011;2582;48.770;9.190;2023-08-06T09:56:26;0.80;;;0.50;;
5127;SDS011;2582;48.770;9.190;2023-08-06T09:58:53;1.30;;;0.73;;
5127;SDS011;2582;48.770;9.190;2023-08-06T10:01:20;0.97;;;0.70;;
5127;SDS011;2582;48.770;9.190;2023-08-06T10:03:47;1.80;;;0.60;;
5127;SDS011;2582;48.770;9.190;2023-08-06T10:06:14;0.80;;;0.60;;
5127;SDS011;2582;48.770;9.190;2023-08-06T10:08:40;0.80;;;0.47;;
5127;SDS011;2582;48.770;9.190;2023-08-06T10:11:07;0.80;;;0.43;;
5127;SDS011;2582;48.770;9.190;2023-08-06T10:13:33;1.20;;;0.60;;
5127;SDS011;2582;48.770;9.190;2023-08-06T10:16:00;0.90;;;0.50;;
5127;SDS011;2582;48.770;9.190;2023-08-06T10:18:27;1.17;;;0.60;;
5127;SDS011;2582;48.770;9.190;2023-08-06T10:20:53;1.03;;;0.60;;
5127;SDS011;2582;48.770;9.190;2023-08-06T10:23:19;0.77;;;0.50;;
5127;SDS011;2582;48.770;9.190;2023-08-06T10:25:57;1.00;;;0.50;;
5127;SDS011;2582;48.770;9.190;2023-08-06T10:28:24;0.80;;;0.50;;
5127;SDS011;2582;48.770;9.190;2023-08-06T10:31:01;0.90;;;0.53;;
5127;SDS011;2582;48.770;9.190;2023-08-06T10:33:39;0.77;;;0.60;;
5127;SDS011;2582;48.770;9.190;2023-08-06T10:36:09;0.80;;;0.50;;
5127;SDS011;2582;48.770;9.190;2023-08-06T10:38:35;1.53;;;0.80;;
5127;SDS011;2582;48.770;9.190;2023-08-06T10:41:28;1.00;;;0.53;;
5127;SDS011;2582;48.770;9.190;2023-08-06T10:44:06;0.70;;;0.40;;
5127;SDS011;2582;48.770;9.190;2023-08-06T10:46:33;1.10;;;0.50;;
5127;SDS011;2582;48.770;9.190;2023-08-06T10:48:59;0.77;;;0.50;;
5127;SDS011;2582;48.770;9.190;2023-08-06T10:51:25;0.80;;;0.40;;
5127;SDS011;2582;48.770;9.190;2023-08-06T10:53:52;0.80;;;0.53;;
5127;SDS011;2582;48.770;9.190;2023-08-06T10:56:18;1.10;;;0.50;;
5127;SDS011;2582;48.770;9.190;2023-08-06T10:58:47;0.80;;;0.50;;
5127;SDS011;2582;48.770;9.190;2023-08-06T11:01:13;0.80;;;0.60;;
5127;SDS011;2582;48.770;9.190;2023-08-06T11:03:41;2.53;;;0.60;;
5127;SDS011;2582;48.770;9.190;2023-08-06T11:06:10;0.90;;;0.53;;
5127;SDS011;2582;48.770;9.190;2023-08-06T11:08:36;1.50;;;0.43;;
5127;SDS011;2582;48.770;9.190;2023-08-06T11:11:13;0.87;;;0.50;;
5127;SDS011;2582;48.770;9.190;2023-08-06T11:13:43;4.67;;;0.60;;
5127;SDS011;2582;48.770;9.190;2023-08-06T11:16:11;1.43;;;0.60;;
5127;SDS011;2582;48.770;9.190;2023-08-06T11:18:40;0.97;;;0.60;;
5127;SDS011;2582;48.770;9.190;2023-08-06T11:21:09;1.37;;;0.60;;
5127;SDS011;2582;48.770;9.190;2023-08-06T11:23:36;1.10;;;0.63;;
5127;SDS011;2582;48.770;9.190;2023-08-06T11:26:02;1.93;;;0.70;;
5127;SDS011;2582;48.770;9.190;2023-08-06T11:28:28;0.83;;;0.40;;
5127;SDS011;2582;48.770;9.190;2023-08-06T11:30:54;0.83;;;0.60;;
5127;SDS011;2582;48.770;9.190;2023-08-06T11:35:48;0.80;;;0.60;;
5127;SDS011;2582;48.770;9.190;2023-08-06T11:38:14;0.90;;;0.63;;
5127;SDS011;2582;48.770;9.190;2023-08-06T11:40:41;1.23;;;0.70;;
5127;SDS011;2582;48.770;9.190;2023-08-06T11:43:08;0.97;;;0.80;;
5127;SDS011;2582;48.770;9.190;2023-08-06T11:45:37;1.20;;;0.90;;
5127;SDS011;2582;48.770;9.190;2023-08-06T11:48:03;1.50;;;0.90;;
5127;SDS011;2582;48.770;9.190;2023-08-06T11:50:29;1.00;;;0.70;;
5127;SDS011;2582;48.770;9.190;2023-08-06T11:52:59;1.73;;;1.17;;
5127;SDS011;2582;48.770;9.190;2023-08-06T11:55:26;1.63;;;1.13;;
5127;SDS011;2582;48.770;9.190;2023-08-06T11:57:53;1.30;;;1.20;;
5127;SDS011;2582;48.770;9.190;2023-08-06T12:00:19;1.73;;;0.90;;
5127;SDS011;2582;48.770;9.190;2023-08-06T12:02:48;2.23;;;1.63;;
5127;SDS011;2582;48.770;9.190;2023-08-06T12:05:16;1.00;;;0.90;;
5127;SDS011;2582;48.770;9.190;2023-08-06T12:07:43;1.87;;;0.90;;
5127;SDS011;2582;48.770;9.190;2023-08-06T12:10:13;2.37;;;1.80;;
5127;SDS011;2582;48.770;9.190;2023-08-06T12:12:39;1.67;;;1.57;;
5127;SDS011;2582;48.770;9.190;2023-08-06T12:15:05;2.13;;;1.30;;
5127;SDS011;2582;48.770;9.190;2023-08-06T12:17:32;4.73;;;2.20;;
5127;SDS011;2582;48.770;9.190;2023-08-06T12:19:58;1.53;;;1.40;;
5127;SDS011;2582;48.770;9.190;2023-08-06T12:22:24;2.27;;;1.50;;
5127;SDS011;2582;48.770;9.190;2023-08-06T12:24:49;2.60;;;1.57;;
5127;SDS011;2582;48.770;9.190;2023-08-06T12:27:15;3.07;;;1.40;;
5127;SDS011;2582;48.770;9.190;2023-08-06T12:29:44;1.63;;;1.40;;
5127;SDS011;2582;48.770;9.190;2023-08-06T12:32:11;1.40;;;1.20;;
5127;SDS011;2582;48.770;9.190;2023-08-06T12:34:37;1.53;;;1.20;;
5127;SDS011;2582;48.770;9.190;2023-08-06T12:37:04;2.70;;;1.50;;
5127;SDS011;2582;48.770;9.190;2023-08-06T12:39:30;2.03;;;1.10;;
5127;SDS011;2582;48.770;9.190;2023-08-06T12:41:56;2.30;;;1.40;;
5127;SDS011;2582;48.770;9.190;2023-08-06T12:44:22;1.57;;;1.23;;
5127;SDS011;2582;48.770;9.190;2023-08-06T12:46:49;2.60;;;1.13;;
5127;SDS011;2582;48.770;9.190;2023-08-06T12:49:16;1.10;;;0.90;;
5127;SDS011;2582;48.770;9.190;2023-08-06T12:51:41;1.67;;;1.03;;
5127;SDS011;2582;48.770;9.190;2023-08-06T12:54:08;1.93;;;1.00;;
5127;SDS011;2582;48.770;9.190;2023-08-06T12:56:34;1.27;;;0.90;;
5127;SDS011;2582;48.770;9.190;2023-08-06T12:58:59;2.10;;;1.50;;
5127;SDS011;2582;48.770;9.190;2023-08-06T13:01:25;1.30;;;0.97;;
5127;SDS011;2582;48.770;9.190;2023-08-06T13:03:50;1.57;;;1.10;;
5127;SDS011;2582;48.770;9.190;2023-08-06T13:06:16;1.50;;;0.90;;
5127;SDS011;2582;48.770;9.190;2023-08-06T13:08:42;1.10;;;0.80;;
5127;SDS011;2582;48.770;9.190;2023-08-06T13:11:07;1.90;;;0.90;;
5127;SDS011;2582;48.770;9.190;2023-08-06T13:13:33;1.40;;;1.00;;
5127;SDS011;2582;48.770;9.190;2023-08-06T13:15:59;1.50;;;1.20;;
5127;SDS011;2582;48.770;9.190;2023-08-06T13:18:24;1.40;;;1.00;;
5127;SDS011;2582;48.770;9.190;2023-08-06T13:20:51;2.20;;;1.57;;
5127;SDS011;2582;48.770;9.190;2023-08-06T13:23:19;1.73;;;1.07;;
5127;SDS011;2582;48.770;9.190;2023-08-06T13:25:45;1.70;;;1.30;;
5127;SDS011;2582;48.770;9.190;2023-08-06T13:28:10;1.20;;;0.97;;
5127;SDS011;2582;48.770;9.190;2023-08-06T13:30:36;1.07;;;0.97;;
5127;SDS011;2582;48.770;9.190;2023-08-06T13:33:06;2.13;;;0.70;;
5127;SDS011;2582;48.770;9.190;2023-08-06T13:35:32;1.00;;;0.90;;
5127;SDS011;2582;48.770;9.190;2023-08-06T13:37:58;2.13;;;0.90;;
5127;SDS011;2582;48.770;9.190;2023-08-06T13:40:23;1.50;;;0.90;;
5127;SDS011;2582;48.770;9.190;2023-08-06T13:42:49;1.20;;;0.93;;
5127;SDS011;2582;48.770;9.190;2023-08-06T13:45:15;1.23;;;1.00;;
5127;SDS011;2582;48.770;9.190;2023-08-06T13:47:40;1.17;;;0.83;;
5127;SDS011;2582;48.770;9.190;2023-08-06T13:50:06;1.37;;;0.70;;
5127;SDS011;2582;48.770;9.190;2023-08-06T13:52:33;1.87;;;1.00;;
5127;SDS011;2582;48.770;9.190;2023-08-06T13:55:00;1.30;;;0.80;;
5127;SDS011;2582;48.770;9.190;2023-08-06T13:57:26;1.00;;;0.70;;
5127;SDS011;2582;48.770;9.190;2023-08-06T13:59:51;1.00;;;0.80;;
5127;SDS011;2582;48.770;9.190;2023-08-06T14:02:17;1.40;;;0.80;;
5127;SDS011;2582;48.770;9.190;2023-08-06T14:04:43;0.90;;;0.70;;
5127;SDS011;2582;48.770;9.190;2023-08-06T14:07:08;1.50;;;1.00;;
5127;SDS011;2582;48.770;9.190;2023-08-06T14:09:34;1.17;;;0.80;;
5127;SDS011;2582;48.770;9.190;2023-08-06T14:11:59;1.10;;;0.80;;
5127;SDS011;2582;48.770;9.190;2023-08-06T14:14:25;2.40;;;0.93;;
5127;SDS011;2582;48.770;9.190;2023-08-06T14:16:54;0.90;;;0.70;;
5127;SDS011;2582;48.770;9.190;2023-08-06T14:19:20;2.03;;;1.10;;
5127;SDS011;2582;48.770;9.190;2023-08-06T14:21:45;1.97;;;0.90;;
5127;SDS011;2582;48.770;9.190;2023-08-06T14:24:11;1.20;;;0.90;;
5127;SDS011;2582;48.770;9.190;2023-08-06T14:26:37;1.90;;;1.10;;
5127;SDS011;2582;48.770;9.190;2023-08-06T14:29:03;0.90;;;0.70;;
5127;SDS011;2582;48.770;9.190;2023-08-06T14:31:28;1.20;;;0.90;;
5127;SDS011;2582;48.770;9.190;2023-08-06T14:33:54;1.77;;;0.87;;
5127;SDS011;2582;48.770;9.190;2023-08-06T14:36:20;1.57;;;0.80;;
5127;SDS011;2582;48.770;9.190;2023-08-06T14:38:45;1.90;;;1.07;;
5127;SDS011;2582;48.770;9.190;2023-08-06T14:41:11;1.10;;;0.80;;
5127;SDS011;2582;48.770;9.190;2023-08-06T14:43:37;1.00;;;0.70;;
5127;SDS011;2582;48.770;9.190;2023-08-06T14:46:02;1.57;;;1.23;;
5127;SDS011;2582;48.770;9.190;2023-08-06T14:48:28;2.10;;;1.40;;
5127;SDS011;2582;48.770;9.190;2023-08-06T14:50:55;2.70;;;1.03;;
5127;SDS011;2582;48.770;9.190;2023-08-06T14:53:20;1.30;;;1.00;;
5127;SDS011;2582;48.770;9.190;2023-08-06T14:55:46;2.27;;;1.50;;
5127;SDS011;2582;48.770;9.190;2023-08-06T14:58:12;1.03;;;0.90;;
5127;SDS011;2582;48.770;9.190;2023-08-06T15:00:37;1.33;;;0.80;;
5127;SDS011;2582;48.770;9.190;2023-08-06T15:03:03;1.00;;;0.70;;
5127;SDS011;2582;48.770;9.190;2023-08-06T15:05:28;4.07;;;1.20;;
5127;SDS011;2582;48.770;9.190;2023-08-06T15:07:54;1.77;;;0.80;;
5127;SDS011;2582;48.770;9.190;2023-08-06T15:10:20;1.73;;;1.00;;
5127;SDS011;2582;48.770;9.190;2023-08-06T15:12:45;1.50;;;0.80;;
5127;SDS011;2582;48.770;9.190;2023-08-06T15:15:11;1.40;;;1.20;;
5127;SDS011;2582;48.770;9.190;2023-08-06T15:17:37;1.70;;;0.80;;
5127;SDS011;2582;48.770;9.190;2023-08-06T15:20:03;1.30;;;1.20;;
5127;SDS011;2582;48.770;9.190;2023-08-06T15:22:29;1.83;;;0.80;;
5127;SDS011;2582;48.770;9.190;2023-08-06T15:24:57;1.67;;;0.80;;
5127;SDS011;2582;48.770;9.190;2023-08-06T15:27:26;2.23;;;1.00;;